Details From HEGN - Hurghada Intl
To OJAI - Queen Alia Intl
Flight Number -
Tags Generated
Created
Modified
Stats Distance 295 nm / 547 km
Max Altitude 0 ft / 0 m
Waypoints 3
Social Downloads 1
Likes 0
Share VATSIM

Download

Looking for another format? Having issues loading an existing format? Contact us
Advertisement - Login to hide

Notes

Generated

Route

HEGN QTR15 OJAI

ID Type Via Altitude Latitude Longitude Leg Dist Tot Dist Heading (true) Name
O HEGN APT - 0 ft / 0 m 27.19576˚ 33.79425˚ - 0 nm - -
QTR15 FIX - 0 ft / 0 m 31.48167˚ 35.95333˚ 281 nm 281 nm 23° / 24° -
O OJAI APT - 0 ft / 0 m 31.71439˚ 35.98059˚ 14 nm 295 nm 6° / 6° -

Altitude Profile

Advertisement - Login to hide

Weather


0- 5 10 15 20 25 30 35+ Temperature / ° C

Clouds and Precipitation
Forecast for 2017-12-18 06:00 UTC. Updated 34 minutes ago

Ground ~20,000 ft ~40,000 ft Winds

HEGN

Details ICAO HEGN (HRG)
Name HURGHADA INTL
Region Egypt
Timezone Africa/Cairo (UTC+2.0)
Stats Elevation 52 ft / 16 m (AMSL)
Location 27.178308° 33.799397°
Runways 1
Magnetic Variation 4.212° E

METAR

HEGN 180300Z 27005KT CAVOK 14/08 Q1019 NOSIG

Decode

TAF

Not found

Departure Runways

ID Width Length Bearing (true) Bearing (mag) Surface Threshold Offset Overrun Length
16 148 ft / 45 m 13,169 ft / 4,014 m 165.29° 161.08° Asphalt 985 ft / 300 m 0 ft / 0 m
34 148 ft / 45 m 13,169 ft / 4,014 m 345.29° 341.08° Asphalt 0 ft / 0 m 200 ft / 61 m

OJAI

Details ICAO OJAI (AMM)
Name QUEEN ALIA INTL
Region Jordan and the West Bank
Timezone Asia/Amman (UTC+2.0)
Stats Elevation 2,395 ft / 730 m (AMSL)
Location 31.723310° 35.994046°
Runways 2
Magnetic Variation 4.661° E

METAR

OJAI 180300Z 25003KT 5000 HZ NSC 10/M03 Q1022 NOSIG

Decode

TAF

TAF OJAI 172300Z 1800/1906 14008KT 8000 SCT100 PROB30 1803/1809 4000 -RA SCT090 BKN140

Decode

Destination Runways

ID Width Length Bearing (true) Bearing (mag) Surface Threshold Offset Overrun Length
08L 200 ft / 61 m 11,948 ft / 3,642 m 80.34° 75.68° Asphalt 0 ft / 0 m 490 ft / 149 m
08R 200 ft / 61 m 11,943 ft / 3,640 m 80.35° 75.69° Concrete 0 ft / 0 m 530 ft / 162 m
26L 200 ft / 61 m 11,943 ft / 3,640 m 260.37° 255.71° Concrete 0 ft / 0 m 500 ft / 152 m
26R 200 ft / 61 m 11,948 ft / 3,642 m 260.36° 255.70° Asphalt 0 ft / 0 m 492 ft / 150 m

Approach Navaids

Runway Type Ident Frequency Range Bearing (true) Bearing (mag) Slope Elevation
08L Localiser IQAN 109.30 MHz 18 nm / 33 km 80.37° 75.70° - 2,399 ft / 731 m (AMSL)
08L Glidescope IQAN 109.30 MHz 10 nm / 19 km 80.35° 75.69° 3.00° 2,537 ft / 773 m (AMSL)
26L Localiser IQA 110.90 MHz 18 nm / 33 km 260.35° 255.69° - 2,356 ft / 718 m (AMSL)
26L Glidescope IQA 110.90 MHz 10 nm / 19 km 260.36° 255.70° 3.00° 2,395 ft / 730 m (AMSL)
26R Localiser IQAR 111.10 MHz 18 nm / 33 km 260.31° 255.65° - 2,393 ft / 729 m (AMSL)
26R Glidescope IQAR 111.10 MHz 10 nm / 19 km 260.35° 255.69° 3.00° 2,393 ft / 729 m (AMSL)